Time;durP1;ratioP1;P1;durP2;ratioP2;P2;SDS_P1;SDS_P2;PMS_P1;PMS_P2;Temp;Humidity;BMP_temperature;BMP_pressure;BME280_temperature;BME280_humidity;BME280_pressure;Samples;Min_cycle;Max_cycle;Signal;HPM_P1;HPM_P2
2022/03/01 00:00:20;;;;;;;;;;;;;;;;;;5052040;28;81808;-56
2022/03/01 00:02:46;;;;;;;;;;;;;;;;;;5052067;27;81775;-55
2022/03/01 00:05:12;;;;;;;;;;;;;;;;;;5051860;28;83630;-53
2022/03/01 00:07:38;;;;;;;;;;;;;;;;;;5052680;28;81806;-54
2022/03/01 00:10:04;;;;;;;;;;;;;;;;;;5055038;28;81790;-56
2022/03/01 00:12:30;;;;;;;;;;;;;;;;;;5051887;28;81845;-58
2022/03/01 00:14:56;;;;;;;;;;;;;;;;;;5052314;27;81328;-55
2022/03/01 00:17:21;;;;;;;;;;;;;;;;;;5051599;28;82606;-55
2022/03/01 00:19:47;;;;;;;;;;;;;;;;;;5052014;28;81940;-58
2022/03/01 00:22:13;;;;;;;;;;;;;;;;;;5050701;27;82714;-57
2022/03/01 00:24:39;;;;;;;;;;;;;;;;;;5051693;28;82959;-57
2022/03/01 00:27:05;;;;;;;;;;;;;;;;;;5051647;28;81809;-54
2022/03/01 00:29:31;;;;;;;;;;;;;;;;;;5051530;28;81792;-57
2022/03/01 00:31:57;;;;;;;;;;;;;;;;;;5054364;28;82443;-56
2022/03/01 00:34:23;;;;;;;;;;;;;;;;;;5051517;28;82373;-54
2022/03/01 00:36:49;;;;;;;;;;;;;;;;;;5051295;28;82555;-57
2022/03/01 00:39:15;;;;;;;;;;;;;;;;;;5052087;28;81060;-54
2022/03/01 00:41:41;;;;;;;;;;;;;;;;;;5051886;28;81963;-54
2022/03/01 00:44:07;;;;;;;;;;;;;;;;;;5051234;28;83046;-54
2022/03/01 00:46:32;;;;;;;;;;;;;;;;;;5050725;28;82748;-54
2022/03/01 00:48:58;;;;;;;;;;;;;;;;;;5051059;28;83364;-56
2022/03/01 00:51:24;;;;;;;;;;;;;;;;;;5050988;28;83347;-53
2022/03/01 00:53:50;;;;;;;;;;;;;;;;;;5053939;28;81694;-53
2022/03/01 00:56:16;;;;;;;;;;;;;;;;;;5050887;28;82389;-54
2022/03/01 00:58:42;;;;;;;;;;;;;;;;;;5051182;28;81790;-53
2022/03/01 01:01:08;;;;;;;;;;;;;;;;;;5051283;28;81802;-57
2022/03/01 01:03:34;;;;;;;;;;;;;;;;;;5051461;28;81697;-53
2022/03/01 01:06:00;;;;;;;;;;;;;;;;;;5051498;28;82070;-53
2022/03/01 01:08:25;;;;;;;;;;;;;;;;;;5051086;28;81951;-53
2022/03/01 01:10:51;;;;;;;;;;;;;;;;;;5049995;28;83613;-57
2022/03/01 01:13:17;;;;;;;;;;;;;;;;;;5050918;28;81778;-55
2022/03/01 01:15:43;;;;;;;;;;;;;;;;;;5053424;28;82503;-57
2022/03/01 01:18:09;;;;;;;;;;;;;;;;;;5051035;28;81786;-56
2022/03/01 01:20:35;;;;;;;;;;;;;;;;;;5051060;28;81869;-53
2022/03/01 01:23:01;;;;;;;;;;;;;;;;;;5050689;28;82419;-57
2022/03/01 01:25:27;;;;;;;;;;;;;;;;;;5050960;28;81787;-58
2022/03/01 01:27:53;;;;;;;;;;;;;;;;;;5051232;28;82233;-55
2022/03/01 01:30:19;;;;;;;;;;;;;;;;;;5051748;28;83539;-55
2022/03/01 01:32:45;;;;;;;;;;;;;;;;;;5050399;27;81903;-55
2022/03/01 01:35:11;;;;;;;;;;;;;;;;;;5051658;28;82844;-53
2022/03/01 01:37:37;;;;;;;;;;;;;;;;;;5050499;28;81805;-58
2022/03/01 01:40:03;;;;;;;;;;;;;;;;;;5050836;28;81802;-54
2022/03/01 01:42:29;;;;;;;;;;;;;;;;;;5050447;28;81794;-55
2022/03/01 01:44:55;;;;;;;;;;;;;;;;;;5050439;28;81778;-55
2022/03/01 01:47:21;;;;;;;;;;;;;;;;;;5050352;28;82304;-54
2022/03/01 01:49:47;;;;;;;;;;;;;;;;;;5049957;28;82603;-57
2022/03/01 01:52:12;;;;;;;;;;;;;;;;;;5050995;28;81313;-56
2022/03/01 01:54:40;;;;;;;;;;;;;;;;;;5050436;28;81878;-57
2022/03/01 01:57:06;;;;;;;;;;;;;;;;;;5052725;28;82879;-57
2022/03/01 01:59:32;;;;;;;;;;;;;;;;;;5049591;27;82814;-57
2022/03/01 02:01:58;;;;;;;;;;;;;;;;;;5050146;28;82358;-58
2022/03/01 02:04:24;;;;;;;;;;;;;;;;;;5050150;28;81813;-55
2022/03/01 02:06:50;;;;;;;;;;;;;;;;;;5050089;28;81890;-55
2022/03/01 02:09:16;;;;;;;;;;;;;;;;;;5049873;28;82533;-56
2022/03/01 02:11:41;;;;;;;;;;;;;;;;;;5050166;28;81805;-56
2022/03/01 02:14:07;;;;;;;;;;;;;;;;;;5050326;28;81900;-53
2022/03/01 02:16:33;;;;;;;;;;;;;;;;;;5050562;28;81028;-53
2022/03/01 02:18:59;;;;;;;;;;;;;;;;;;5052702;28;81711;-52
2022/03/01 02:21:25;;;;;;;;;;;;;;;;;;5049651;28;83681;-54
2022/03/01 02:23:51;;;;;;;;;;;;;;;;;;5049404;28;82734;-57
2022/03/01 02:26:17;;;;;;;;;;;;;;;;;;5050094;28;82308;-54
2022/03/01 02:28:43;;;;;;;;;;;;;;;;;;5050194;28;82435;-55
2022/03/01 02:31:09;;;;;;;;;;;;;;;;;;5049758;28;81801;-57
2022/03/01 02:33:35;;;;;;;;;;;;;;;;;;5049762;28;81921;-53
2022/03/01 02:36:00;;;;;;;;;;;;;;;;;;5049604;28;83736;-54
2022/03/01 02:38:26;;;;;;;;;;;;;;;;;;5049816;28;81809;-53
2022/03/01 02:40:52;;;;;;;;;;;;;;;;;;5052630;27;81063;-57
2022/03/01 02:43:18;;;;;;;;;;;;;;;;;;5049562;28;81804;-55
2022/03/01 02:45:44;;;;;;;;;;;;;;;;;;5049407;28;82381;-54
2022/03/01 02:48:10;;;;;;;;;;;;;;;;;;5048663;28;84915;-55
2022/03/01 02:50:36;;;;;;;;;;;;;;;;;;5049198;28;81895;-57
2022/03/01 02:53:02;;;;;;;;;;;;;;;;;;5050369;28;83009;-58
2022/03/01 02:55:28;;;;;;;;;;;;;;;;;;5049335;28;82769;-54
2022/03/01 02:57:54;;;;;;;;;;;;;;;;;;5049691;28;81718;-57
2022/03/01 03:00:19;;;;;;;;;;;;;;;;;;5049730;28;81804;-55
2022/03/01 03:02:45;;;;;;;;;;;;;;;;;;5051800;28;83558;-54
2022/03/01 03:05:11;;;;;;;;;;;;;;;;;;5049799;28;82624;-55
2022/03/01 03:07:37;;;;;;;;;;;;;;;;;;5049017;28;83343;-54
2022/03/01 03:10:03;;;;;;;;;;;;;;;;;;5049099;28;81934;-54
2022/03/01 03:12:29;;;;;;;;;;;;;;;;;;5048566;28;82832;-53
2022/03/01 03:14:55;;;;;;;;;;;;;;;;;;5048981;28;83273;-56
2022/03/01 03:17:22;;;;;;;;;;;;;;;;;;5049344;28;81829;-57
2022/03/01 03:19:48;;;;;;;;;;;;;;;;;;5049114;28;81808;-55
2022/03/01 03:22:14;;;;;;;;;;;;;;;;;;5049081;28;83376;-54
2022/03/01 03:24:40;;;;;;;;;;;;;;;;;;5051765;28;81870;-58
2022/03/01 03:27:06;;;;;;;;;;;;;;;;;;5049023;28;82449;-55
2022/03/01 03:29:32;;;;;;;;;;;;;;;;;;5049521;28;81389;-56
2022/03/01 03:31:58;;;;;;;;;;;;;;;;;;5049109;28;81742;-57
2022/03/01 03:34:24;;;;;;;;;;;;;;;;;;5048758;28;83181;-56
2022/03/01 03:36:50;;;;;;;;;;;;;;;;;;5048468;28;82740;-57
2022/03/01 03:39:15;;;;;;;;;;;;;;;;;;5049006;28;82382;-57
2022/03/01 03:41:41;;;;;;;;;;;;;;;;;;5048563;28;83530;-56
2022/03/01 03:44:07;;;;;;;;;;;;;;;;;;5052022;28;81762;-55
2022/03/01 03:46:33;;;;;;;;;;;;;;;;;;5048552;27;82660;-53
2022/03/01 03:48:59;;;;;;;;;;;;;;;;;;5049005;28;81728;-53
2022/03/01 03:51:26;;;;;;;;;;;;;;;;;;5048895;28;81841;-52
2022/03/01 03:53:51;;;;;;;;;;;;;;;;;;5048996;28;81780;-52
2022/03/01 03:56:17;;;;;;;;;;;;;;;;;;5048696;27;81849;-53
2022/03/01 03:58:43;;;;;;;;;;;;;;;;;;5052182;28;82367;-52
2022/03/01 04:01:09;;;;;;;;;;;;;;;;;;5051139;28;84359;-52
2022/03/01 04:03:35;;;;;;;;;;;;;;;;;;5052237;28;81806;-52
2022/03/01 04:06:01;;;;;;;;;;;;;;;;;;5054681;28;82198;-52
2022/03/01 04:08:27;;;;;;;;;;;;;;;;;;5051987;28;81768;-53
2022/03/01 04:10:53;;;;;;;;;;;;;;;;;;5051899;28;82683;-52
2022/03/01 04:13:19;;;;;;;;;;;;;;;;;;5051922;27;81829;-52
2022/03/01 04:15:45;;;;;;;;;;;;;;;;;;5052732;28;81721;-53
2022/03/01 04:18:11;;;;;;;;;;;;;;;;;;5052500;28;81382;-53
2022/03/01 04:20:36;;;;;;;;;;;;;;;;;;5051545;27;81858;-52
2022/03/01 04:23:02;;;;;;;;;;;;;;;;;;5051910;28;81815;-53
2022/03/01 04:25:28;;;;;;;;;;;;;;;;;;5051175;28;82665;-52
2022/03/01 04:27:54;;;;;;;;;;;;;;;;;;5054233;28;83511;-53
2022/03/01 04:30:20;;;;;;;;;;;;;;;;;;5051503;28;82392;-53
2022/03/01 04:32:46;;;;;;;;;;;;;;;;;;5051610;28;82659;-53
2022/03/01 04:35:12;;;;;;;;;;;;;;;;;;5051836;28;82163;-53
2022/03/01 04:37:38;;;;;;;;;;;;;;;;;;5051516;28;82460;-53
2022/03/01 04:40:04;;;;;;;;;;;;;;;;;;5051596;28;82405;-55
2022/03/01 04:42:30;;;;;;;;;;;;;;;;;;5051802;28;81092;-53
2022/03/01 04:44:56;;;;;;;;;;;;;;;;;;5051464;28;81856;-53
2022/03/01 04:47:21;;;;;;;;;;;;;;;;;;5051382;28;82574;-54
2022/03/01 04:49:47;;;;;;;;;;;;;;;;;;5053260;28;82910;-53
2022/03/01 04:52:13;;;;;;;;;;;;;;;;;;5051004;28;82977;-53
2022/03/01 04:54:39;;;;;;;;;;;;;;;;;;5051281;28;81858;-52
2022/03/01 04:57:05;;;;;;;;;;;;;;;;;;5051626;28;81711;-53
2022/03/01 04:59:31;;;;;;;;;;;;;;;;;;5050858;28;82529;-53
2022/03/01 05:01:57;;;;;;;;;;;;;;;;;;5051223;28;81826;-53
2022/03/01 05:04:23;;;;;;;;;;;;;;;;;;5051332;28;81750;-53
2022/03/01 05:06:49;;;;;;;;;;;;;;;;;;5051335;28;82688;-53
2022/03/01 05:09:15;;;;;;;;;;;;;;;;;;5051062;27;82136;-53
2022/03/01 05:11:41;;;;;;;;;;;;;;;;;;5053686;28;81890;-53
2022/03/01 05:14:07;;;;;;;;;;;;;;;;;;5050303;28;82733;-53
2022/03/01 05:16:33;;;;;;;;;;;;;;;;;;5050898;28;83344;-53
2022/03/01 05:19:00;;;;;;;;;;;;;;;;;;5050837;28;82439;-53
2022/03/01 05:21:26;;;;;;;;;;;;;;;;;;5050897;28;81847;-52
2022/03/01 05:23:51;;;;;;;;;;;;;;;;;;5050691;28;81849;-52
2022/03/01 05:26:18;;;;;;;;;;;;;;;;;;5050571;28;83613;-53
2022/03/01 05:28:44;;;;;;;;;;;;;;;;;;5050542;28;81858;-54
2022/03/01 05:31:10;;;;;;;;;;;;;;;;;;5053533;28;82295;-53
2022/03/01 05:33:36;;;;;;;;;;;;;;;;;;5050875;28;81934;-53
2022/03/01 05:36:02;;;;;;;;;;;;;;;;;;5050830;28;83015;-53
2022/03/01 05:38:28;;;;;;;;;;;;;;;;;;5050360;28;84386;-53
2022/03/01 05:40:54;;;;;;;;;;;;;;;;;;5050724;28;81798;-53
2022/03/01 05:43:20;;;;;;;;;;;;;;;;;;5050651;28;81843;-53
2022/03/01 05:45:46;;;;;;;;;;;;;;;;;;5050394;28;81817;-53
2022/03/01 05:48:11;;;;;;;;;;;;;;;;;;5050514;28;81832;-52
2022/03/01 05:50:37;;;;;;;;;;;;;;;;;;5049967;28;82786;-52
2022/03/01 05:53:03;;;;;;;;;;;;;;;;;;5053022;28;81786;-53
2022/03/01 05:55:29;;;;;;;;;;;;;;;;;;5050979;28;81170;-52
2022/03/01 05:57:55;;;;;;;;;;;;;;;;;;5050185;28;83295;-53
2022/03/01 06:00:21;;;;;;;;;;;;;;;;;;5050077;28;81755;-53
2022/03/01 06:02:47;;;;;;;;;;;;;;;;;;5049521;28;82783;-52
2022/03/01 06:05:14;;;;;;;;;;;;;;;;;;5049730;28;83305;-55
2022/03/01 06:07:40;;;;;;;;;;;;;;;;;;5050205;28;82059;-53
2022/03/01 06:10:06;;;;;;;;;;;;;;;;;;5050077;28;81785;-53
2022/03/01 06:12:32;;;;;;;;;;;;;;;;;;5050060;28;82407;-52
2022/03/01 06:14:58;;;;;;;;;;;;;;;;;;5052732;28;81833;-53
2022/03/01 06:17:24;;;;;;;;;;;;;;;;;;5049731;28;82485;-52
2022/03/01 06:19:50;;;;;;;;;;;;;;;;;;5050039;28;81007;-53
2022/03/01 06:22:16;;;;;;;;;;;;;;;;;;5049776;28;81802;-53
2022/03/01 06:24:41;;;;;;;;;;;;;;;;;;5049550;28;82872;-52
2022/03/01 06:27:07;;;;;;;;;;;;;;;;;;5049379;28;82783;-53
2022/03/01 06:29:33;;;;;;;;;;;;;;;;;;5049715;28;82667;-53
2022/03/01 06:31:59;;;;;;;;;;;;;;;;;;5049560;28;82953;-53
2022/03/01 06:34:25;;;;;;;;;;;;;;;;;;5049693;28;81787;-54
2022/03/01 06:36:51;;;;;;;;;;;;;;;;;;5052170;28;81806;-52
2022/03/01 06:39:17;;;;;;;;;;;;;;;;;;5049510;28;81736;-52
2022/03/01 06:41:43;;;;;;;;;;;;;;;;;;5049742;28;81798;-54
2022/03/01 06:44:09;;;;;;;;;;;;;;;;;;5049966;28;82363;-52
2022/03/01 06:46:35;;;;;;;;;;;;;;;;;;5049414;28;81798;-55
2022/03/01 06:49:01;;;;;;;;;;;;;;;;;;5049076;28;81807;-52
2022/03/01 06:51:27;;;;;;;;;;;;;;;;;;5048347;28;84907;-53
2022/03/01 06:53:53;;;;;;;;;;;;;;;;;;5049434;28;82081;-52
2022/03/01 06:56:19;;;;;;;;;;;;;;;;;;5049604;28;82499;-52
2022/03/01 06:58:45;;;;;;;;;;;;;;;;;;5051859;28;82628;-52
2022/03/01 07:01:11;;;;;;;;;;;;;;;;;;5050063;28;81807;-53
2022/03/01 07:03:39;;;;;;;;;;;;;;;;;;5049272;28;82856;-52
2022/03/01 07:06:04;;;;;;;;;;;;;;;;;;5049152;28;81807;-52
2022/03/01 07:08:31;;;;;;;;;;;;;;;;;;5049932;28;81057;-53
2022/03/01 07:10:58;;;;;;;;;;;;;;;;;;5048807;28;83615;-52
2022/03/01 07:13:24;;;;;;;;;;;;;;;;;;5049136;28;81974;-52
2022/03/01 07:15:49;;;;;;;;;;;;;;;;;;5048561;28;82849;-52
2022/03/01 07:18:15;;;;;;;;;;;;;;;;;;5048849;28;82534;-53
2022/03/01 07:20:43;;;;;;;;;;;;;;;;;;5051787;28;81798;-52
2022/03/01 07:23:10;;;;;;;;;;;;;;;;;;5048817;28;82601;-53
2022/03/01 07:25:36;;;;;;;;;;;;;;;;;;5048919;28;81787;-53
2022/03/01 07:28:02;;;;;;;;;;;;;;;;;;5049210;28;81970;-53
2022/03/01 07:30:28;;;;;;;;;;;;;;;;;;5048590;28;83421;-52
2022/03/01 07:32:54;;;;;;;;;;;;;;;;;;5051644;28;81173;-53
2022/03/01 07:35:19;;;;;;;;;;;;;;;;;;5052525;28;81870;-53
2022/03/01 07:37:45;;;;;;;;;;;;;;;;;;5052133;28;82272;-54
2022/03/01 07:40:12;;;;;;;;;;;;;;;;;;5054520;28;82755;-52
2022/03/01 07:42:38;;;;;;;;;;;;;;;;;;5052141;28;82652;-56
2022/03/01 07:45:04;;;;;;;;;;;;;;;;;;5052328;28;81772;-52
2022/03/01 07:47:30;;;;;;;;;;;;;;;;;;5052215;28;81790;-52
2022/03/01 07:49:55;;;;;;;;;;;;;;;;;;5051276;28;82375;-55
2022/03/01 07:52:21;;;;;;;;;;;;;;;;;;5052386;28;81782;-53
2022/03/01 07:54:48;;;;;;;;;;;;;;;;;;5052433;28;81860;-52
2022/03/01 07:57:14;;;;;;;;;;;;;;;;;;5052497;28;82733;-52
2022/03/01 07:59:40;;;;;;;;;;;;;;;;;;5052102;28;81824;-52
2022/03/01 08:02:06;;;;;;;;;;;;;;;;;;5054717;28;81711;-52
2022/03/01 08:04:32;;;;;;;;;;;;;;;;;;5051360;28;82714;-52
2022/03/01 08:06:58;;;;;;;;;;;;;;;;;;5051891;28;83108;-53
2022/03/01 08:09:24;;;;;;;;;;;;;;;;;;5051690;28;82525;-53
2022/03/01 08:11:50;;;;;;;;;;;;;;;;;;5051860;28;81831;-52
2022/03/01 08:14:16;;;;;;;;;;;;;;;;;;5051812;28;82497;-53
2022/03/01 08:16:41;;;;;;;;;;;;;;;;;;5051531;28;83551;-52
2022/03/01 08:19:07;;;;;;;;;;;;;;;;;;5051976;28;81790;-52
2022/03/01 08:21:33;;;;;;;;;;;;;;;;;;5052491;28;81401;-52
2022/03/01 08:23:59;;;;;;;;;;;;;;;;;;5055061;28;83366;-52
2022/03/01 08:26:25;;;;;;;;;;;;;;;;;;5052065;28;81734;-52
2022/03/01 08:28:51;;;;;;;;;;;;;;;;;;5051068;28;83390;-52
2022/03/01 08:31:17;;;;;;;;;;;;;;;;;;5051416;28;81834;-52
2022/03/01 08:33:43;;;;;;;;;;;;;;;;;;5051610;28;81767;-52
2022/03/01 08:36:09;;;;;;;;;;;;;;;;;;5051314;28;82597;-53
2022/03/01 08:38:36;;;;;;;;;;;;;;;;;;5051636;27;82054;-52
2022/03/01 08:41:02;;;;;;;;;;;;;;;;;;5051498;28;82674;-53
2022/03/01 08:43:28;;;;;;;;;;;;;;;;;;5050870;28;83995;-53
2022/03/01 08:45:54;;;;;;;;;;;;;;;;;;5054852;28;81469;-52
2022/03/01 08:48:20;;;;;;;;;;;;;;;;;;5051185;28;82662;-52
2022/03/01 08:50:46;;;;;;;;;;;;;;;;;;5051001;28;81877;-53
2022/03/01 08:53:12;;;;;;;;;;;;;;;;;;5050639;28;82805;-52
2022/03/01 08:55:38;;;;;;;;;;;;;;;;;;5051338;28;82327;-52
2022/03/01 08:58:04;;;;;;;;;;;;;;;;;;5051163;28;81776;-52
2022/03/01 09:00:30;;;;;;;;;;;;;;;;;;5051197;27;81894;-53
2022/03/01 09:02:56;;;;;;;;;;;;;;;;;;5050815;28;82758;-54
2022/03/01 09:05:23;;;;;;;;;;;;;;;;;;5051020;28;81872;-53
2022/03/01 09:07:49;;;;;;;;;;;;;;;;;;5053565;28;82390;-52
2022/03/01 09:10:15;;;;;;;;;;;;;;;;;;5051696;28;81128;-53
2022/03/01 09:12:41;;;;;;;;;;;;;;;;;;5050883;28;81844;-55
2022/03/01 09:15:07;;;;;;;;;;;;;;;;;;5050658;28;83218;-54
2022/03/01 09:17:32;;;;;;;;;;;;;;;;;;5050166;28;82628;-53
2022/03/01 09:19:58;;;;;;;;;;;;;;;;;;5051138;28;82256;-53
2022/03/01 09:22:24;;;;;;;;;;;;;;;;;;5051180;28;82328;-53
2022/03/01 09:24:50;;;;;;;;;;;;;;;;;;5051086;28;81709;-52
2022/03/01 09:27:16;;;;;;;;;;;;;;;;;;5050769;28;82429;-53
2022/03/01 09:29:44;;;;;;;;;;;;;;;;;;5053251;28;83349;-53
2022/03/01 09:32:10;;;;;;;;;;;;;;;;;;5050564;27;81835;-54
2022/03/01 09:34:35;;;;;;;;;;;;;;;;;;5051189;28;81565;-53
2022/03/01 09:37:01;;;;;;;;;;;;;;;;;;5050586;28;81716;-52
2022/03/01 09:39:27;;;;;;;;;;;;;;;;;;5050806;28;82653;-54
2022/03/01 09:41:55;;;;;;;;;;;;;;;;;;5049784;28;83453;-52
2022/03/01 09:44:20;;;;;;;;;;;;;;;;;;5050357;28;81917;-53
2022/03/01 09:46:46;;;;;;;;;;;;;;;;;;5050390;28;82583;-52
2022/03/01 09:49:13;;;;;;;;;;;;;;;;;;5052900;28;82355;-53
2022/03/01 09:51:39;;;;;;;;;;;;;;;;;;5051024;28;82454;-53
2022/03/01 09:54:05;;;;;;;;;;;;;;;;;;5050194;27;83334;-53
2022/03/01 09:56:31;;;;;;;;;;;;;;;;;;5049732;28;81983;-56
2022/03/01 09:58:58;;;;;;;;;;;;;;;;;;5050964;28;81124;-52
2022/03/01 10:01:23;;;;;;;;;;;;;;;;;;5050002;28;83293;-52
2022/03/01 10:03:51;;;;;;;;;;;;;;;;;;5050147;28;81794;-52
2022/03/01 10:06:17;;;;;;;;;;;;;;;;;;5049509;28;82760;-53
2022/03/01 10:08:43;;;;;;;;;;;;;;;;;;5049808;28;83319;-53
2022/03/01 10:11:09;;;;;;;;;;;;;;;;;;5052960;28;81883;-53
2022/03/01 10:13:35;;;;;;;;;;;;;;;;;;5049670;27;82634;-53
2022/03/01 10:16:01;;;;;;;;;;;;;;;;;;5049885;28;81822;-53
2022/03/01 10:18:26;;;;;;;;;;;;;;;;;;5049921;28;81742;-53
2022/03/01 10:20:52;;;;;;;;;;;;;;;;;;5049680;28;83276;-53
2022/03/01 10:23:18;;;;;;;;;;;;;;;;;;5050406;28;80961;-54
2022/03/01 10:25:44;;;;;;;;;;;;;;;;;;5049892;28;81822;-53
2022/03/01 10:28:10;;;;;;;;;;;;;;;;;;5049609;28;83487;-53
2022/03/01 10:30:36;;;;;;;;;;;;;;;;;;5048949;28;82868;-53
2022/03/01 10:33:02;;;;;;;;;;;;;;;;;;5052473;28;82150;-53
2022/03/01 10:35:28;;;;;;;;;;;;;;;;;;5049966;28;81830;-53
2022/03/01 10:37:54;;;;;;;;;;;;;;;;;;5049655;28;82002;-54
2022/03/01 10:40:19;;;;;;;;;;;;;;;;;;5049422;28;83664;-59
2022/03/01 10:42:45;;;;;;;;;;;;;;;;;;5049622;28;81800;-54
2022/03/01 10:45:12;;;;;;;;;;;;;;;;;;5049543;28;82435;-53
2022/03/01 10:47:38;;;;;;;;;;;;;;;;;;5049782;28;82640;-53
2022/03/01 10:50:04;;;;;;;;;;;;;;;;;;5048988;28;81832;-54
2022/03/01 10:52:30;;;;;;;;;;;;;;;;;;5049916;28;82123;-59
2022/03/01 10:54:56;;;;;;;;;;;;;;;;;;5051666;28;83454;-58
2022/03/01 10:57:22;;;;;;;;;;;;;;;;;;5049584;28;82223;-60
2022/03/01 10:59:48;;;;;;;;;;;;;;;;;;5049162;27;82472;-59
2022/03/01 11:02:16;;;;;;;;;;;;;;;;;;5049649;28;81818;-56
2022/03/01 11:04:42;;;;;;;;;;;;;;;;;;5049249;28;82355;-59
2022/03/01 11:07:08;;;;;;;;;;;;;;;;;;5051967;27;81801;-61
2022/03/01 11:09:34;;;;;;;;;;;;;;;;;;5053018;28;81877;-59
2022/03/01 11:12:01;;;;;;;;;;;;;;;;;;5053212;28;82330;-57
2022/03/01 11:14:26;;;;;;;;;;;;;;;;;;5052911;28;82462;-59
2022/03/01 11:16:52;;;;;;;;;;;;;;;;;;5057138;28;81779;-60
2022/03/01 11:19:18;;;;;;;;;;;;;;;;;;5051980;28;84138;-60
2022/03/01 11:21:44;;;;;;;;;;;;;;;;;;5052760;28;82011;-59
2022/03/01 11:24:10;;;;;;;;;;;;;;;;;;5052804;28;81746;-59
2022/03/01 11:26:37;;;;;;;;;;;;;;;;;;5052684;28;82361;-59
2022/03/01 11:29:03;;;;;;;;;;;;;;;;;;5052582;28;81790;-60
2022/03/01 11:31:29;;;;;;;;;;;;;;;;;;5052791;28;81769;-59
2022/03/01 11:33:55;;;;;;;;;;;;;;;;;;5052407;28;82663;-60
2022/03/01 11:36:21;;;;;;;;;;;;;;;;;;5052984;27;81288;-56
2022/03/01 11:38:47;;;;;;;;;;;;;;;;;;5055049;28;81712;-59
2022/03/01 11:41:19;;;;;;;;;;;;;;;;;;5052405;28;81748;-60
2022/03/01 11:43:45;;;;;;;;;;;;;;;;;;5051766;28;82729;-59
2022/03/01 11:46:11;;;;;;;;;;;;;;;;;;5052368;28;82493;-59
2022/03/01 11:48:37;;;;;;;;;;;;;;;;;;5052136;28;82001;-59
2022/03/01 11:51:03;;;;;;;;;;;;;;;;;;5052136;28;81758;-60
2022/03/01 11:53:29;;;;;;;;;;;;;;;;;;5052185;28;81953;-60
2022/03/01 11:55:55;;;;;;;;;;;;;;;;;;5052405;28;81745;-60
2022/03/01 11:58:21;;;;;;;;;;;;;;;;;;5054746;28;81830;-58
2022/03/01 12:00:47;;;;;;;;;;;;;;;;;;5052774;28;81079;-59
2022/03/01 12:03:13;;;;;;;;;;;;;;;;;;5052177;28;81807;-60
2022/03/01 12:05:39;;;;;;;;;;;;;;;;;;5051818;28;83189;-60
2022/03/01 12:08:05;;;;;;;;;;;;;;;;;;5051384;28;82754;-60
2022/03/01 12:10:31;;;;;;;;;;;;;;;;;;5051775;28;83512;-59
2022/03/01 12:12:57;;;;;;;;;;;;;;;;;;5051771;28;82630;-60
2022/03/01 12:15:22;;;;;;;;;;;;;;;;;;5051805;28;81741;-60
2022/03/01 12:17:49;;;;;;;;;;;;;;;;;;5051110;28;81905;-59
2022/03/01 12:20:15;;;;;;;;;;;;;;;;;;5054287;28;82715;-60
2022/03/01 12:22:41;;;;;;;;;;;;;;;;;;5051841;28;82049;-59
2022/03/01 12:25:07;;;;;;;;;;;;;;;;;;5052343;28;81544;-59
2022/03/01 12:27:33;;;;;;;;;;;;;;;;;;5051693;28;81690;-57
2022/03/01 12:29:59;;;;;;;;;;;;;;;;;;5051626;28;82297;-60
2022/03/01 12:32:25;;;;;;;;;;;;;;;;;;5050908;28;82951;-59
2022/03/01 12:34:50;;;;;;;;;;;;;;;;;;5051591;28;81799;-59
2022/03/01 12:37:19;;;;;;;;;;;;;;;;;;5052298;28;82343;-60
2022/03/01 12:39:45;;;;;;;;;;;;;;;;;;5052789;28;83376;-61
2022/03/01 12:42:11;;;;;;;;;;;;;;;;;;5054529;28;81953;-60
2022/03/01 12:44:37;;;;;;;;;;;;;;;;;;5051254;28;82949;-60
2022/03/01 12:47:03;;;;;;;;;;;;;;;;;;5051572;28;81700;-60
2022/03/01 12:49:29;;;;;;;;;;;;;;;;;;5051624;28;81617;-59
2022/03/01 12:51:55;;;;;;;;;;;;;;;;;;5050938;28;82694;-60
2022/03/01 12:54:21;;;;;;;;;;;;;;;;;;5051188;28;81804;-59
2022/03/01 12:56:47;;;;;;;;;;;;;;;;;;5050776;28;82743;-60
2022/03/01 12:59:13;;;;;;;;;;;;;;;;;;5051120;28;83593;-58
2022/03/01 13:01:39;;;;;;;;;;;;;;;;;;5051431;28;81920;-59
2022/03/01 13:04:05;;;;;;;;;;;;;;;;;;5053762;28;82840;-57
2022/03/01 13:06:31;;;;;;;;;;;;;;;;;;5051011;28;81736;-59
2022/03/01 13:08:57;;;;;;;;;;;;;;;;;;5051040;28;82934;-57
2022/03/01 13:11:23;;;;;;;;;;;;;;;;;;5050689;28;82431;-58
2022/03/01 13:13:49;;;;;;;;;;;;;;;;;;5051851;28;81032;-58
2022/03/01 13:16:15;;;;;;;;;;;;;;;;;;5050934;28;81816;-58
2022/03/01 13:18:41;;;;;;;;;;;;;;;;;;5050729;28;82524;-57
2022/03/01 13:21:06;;;;;;;;;;;;;;;;;;5050411;28;83098;-56
2022/03/01 13:23:33;;;;;;;;;;;;;;;;;;5050853;28;83316;-58
2022/03/01 13:26:01;;;;;;;;;;;;;;;;;;5053295;28;83573;-57
2022/03/01 13:28:26;;;;;;;;;;;;;;;;;;5050955;28;81968;-55
2022/03/01 13:30:52;;;;;;;;;;;;;;;;;;5049196;28;82571;-55
2022/03/01 13:33:18;;;;;;;;;;;;;;;;;;5050758;28;81846;-56
2022/03/01 13:35:44;;;;;;;;;;;;;;;;;;5050871;28;81902;-58
2022/03/01 13:38:10;;;;;;;;;;;;;;;;;;5050853;28;82618;-55
2022/03/01 13:40:36;;;;;;;;;;;;;;;;;;5050534;28;81798;-56
2022/03/01 13:43:02;;;;;;;;;;;;;;;;;;5050846;28;81795;-58
2022/03/01 13:45:28;;;;;;;;;;;;;;;;;;5049867;28;83374;-58
2022/03/01 13:47:54;;;;;;;;;;;;;;;;;;5053100;28;81675;-55
2022/03/01 13:50:21;;;;;;;;;;;;;;;;;;5049579;28;83384;-59
2022/03/01 13:52:48;;;;;;;;;;;;;;;;;;5050336;28;81892;-56
2022/03/01 13:55:14;;;;;;;;;;;;;;;;;;5050392;28;82631;-55
2022/03/01 13:57:39;;;;;;;;;;;;;;;;;;5050867;28;82266;-57
2022/03/01 14:00:05;;;;;;;;;;;;;;;;;;5052186;28;81773;-58
2022/03/01 14:02:31;;;;;;;;;;;;;;;;;;5050911;28;81047;-58
2022/03/01 14:04:57;;;;;;;;;;;;;;;;;;5049891;28;83573;-56
2022/03/01 14:07:23;;;;;;;;;;;;;;;;;;5052767;28;81782;-56
2022/03/01 14:09:49;;;;;;;;;;;;;;;;;;5049163;28;84274;-56
2022/03/01 14:12:15;;;;;;;;;;;;;;;;;;5049892;28;81789;-59
2022/03/01 14:14:41;;;;;;;;;;;;;;;;;;5050319;28;81739;-57
2022/03/01 14:17:06;;;;;;;;;;;;;;;;;;5050168;28;82730;-59
2022/03/01 14:19:32;;;;;;;;;;;;;;;;;;5050245;28;81788;-59
2022/03/01 14:21:58;;;;;;;;;;;;;;;;;;5049895;28;82305;-59
2022/03/01 14:24:25;;;;;;;;;;;;;;;;;;5049638;28;83501;-60
2022/03/01 14:26:51;;;;;;;;;;;;;;;;;;5050272;28;81136;-57
2022/03/01 14:29:16;;;;;;;;;;;;;;;;;;5052915;28;81928;-59
2022/03/01 14:31:43;;;;;;;;;;;;;;;;;;5049938;28;81787;-59
2022/03/01 14:34:09;;;;;;;;;;;;;;;;;;5049157;28;82645;-57
2022/03/01 14:36:35;;;;;;;;;;;;;;;;;;5049426;28;82602;-59
2022/03/01 14:39:01;;;;;;;;;;;;;;;;;;5049549;28;81801;-58
2022/03/01 14:41:27;;;;;;;;;;;;;;;;;;5049162;27;81787;-55
2022/03/01 14:43:55;;;;;;;;;;;;;;;;;;5049715;28;81999;-59
2022/03/01 14:46:21;;;;;;;;;;;;;;;;;;5049484;28;81815;-59
2022/03/01 14:48:47;;;;;;;;;;;;;;;;;;5049265;27;82096;-57
2022/03/01 14:51:14;;;;;;;;;;;;;;;;;;5052336;28;82693;-59
2022/03/01 14:53:40;;;;;;;;;;;;;;;;;;5049626;27;81762;-58
2022/03/01 14:56:06;;;;;;;;;;;;;;;;;;5049731;28;82818;-59
2022/03/01 14:58:31;;;;;;;;;;;;;;;;;;5049051;28;82723;-58
2022/03/01 15:00:57;;;;;;;;;;;;;;;;;;5049695;27;81809;-59
2022/03/01 15:03:23;;;;;;;;;;;;;;;;;;5049370;28;82459;-58
2022/03/01 15:05:49;;;;;;;;;;;;;;;;;;5049619;28;82079;-59
2022/03/01 15:08:15;;;;;;;;;;;;;;;;;;5049615;27;81701;-57
2022/03/01 15:10:41;;;;;;;;;;;;;;;;;;5049241;28;82304;-56
2022/03/01 15:13:07;;;;;;;;;;;;;;;;;;5052002;27;81966;-54
2022/03/01 15:15:33;;;;;;;;;;;;;;;;;;5049509;28;82427;-55
2022/03/01 15:17:59;;;;;;;;;;;;;;;;;;5051072;28;81820;-54
2022/03/01 15:20:25;;;;;;;;;;;;;;;;;;5049709;27;82616;-54
2022/03/01 15:22:51;;;;;;;;;;;;;;;;;;5048322;28;84190;-53
2022/03/01 15:25:16;;;;;;;;;;;;;;;;;;5049400;28;82079;-54
2022/03/01 15:27:42;;;;;;;;;;;;;;;;;;5048992;27;82690;-56
2022/03/01 15:30:08;;;;;;;;;;;;;;;;;;5048912;27;82485;-55
2022/03/01 15:32:34;;;;;;;;;;;;;;;;;;5048842;28;81816;-55
2022/03/01 15:35:00;;;;;;;;;;;;;;;;;;5051481;27;81788;-54
2022/03/01 15:37:26;;;;;;;;;;;;;;;;;;5048903;28;81826;-55
2022/03/01 15:39:52;;;;;;;;;;;;;;;;;;5049409;27;81502;-55
2022/03/01 15:42:18;;;;;;;;;;;;;;;;;;5048930;28;81830;-54
2022/03/01 15:44:44;;;;;;;;;;;;;;;;;;5049039;28;81796;-55
2022/03/01 15:47:10;;;;;;;;;;;;;;;;;;5048534;27;82728;-55
2022/03/01 15:49:37;;;;;;;;;;;;;;;;;;5048219;28;83621;-58
2022/03/01 15:52:03;;;;;;;;;;;;;;;;;;5048556;28;81821;-53
2022/03/01 15:54:29;;;;;;;;;;;;;;;;;;5054354;28;81820;-54
2022/03/01 15:56:55;;;;;;;;;;;;;;;;;;5051736;27;81972;-55
2022/03/01 15:59:21;;;;;;;;;;;;;;;;;;5052113;27;81821;-59
2022/03/01 16:01:47;;;;;;;;;;;;;;;;;;5051792;28;83023;-59
2022/03/01 16:04:13;;;;;;;;;;;;;;;;;;5052669;28;81034;-59
2022/03/01 16:06:39;;;;;;;;;;;;;;;;;;5052101;27;82030;-56
2022/03/01 16:09:05;;;;;;;;;;;;;;;;;;5052014;28;81693;-57
2022/03/01 16:11:31;;;;;;;;;;;;;;;;;;5051134;28;82740;-58
2022/03/01 16:13:57;;;;;;;;;;;;;;;;;;5051946;27;83348;-59
2022/03/01 16:16:23;;;;;;;;;;;;;;;;;;5054654;28;81845;-59
2022/03/01 16:18:49;;;;;;;;;;;;;;;;;;5052218;27;81758;-57
2022/03/01 16:21:15;;;;;;;;;;;;;;;;;;5051881;28;82362;-57
2022/03/01 16:23:40;;;;;;;;;;;;;;;;;;5051884;28;81793;-58
2022/03/01 16:26:07;;;;;;;;;;;;;;;;;;5052139;27;81807;-58
2022/03/01 16:28:33;;;;;;;;;;;;;;;;;;5052005;28;82566;-58
2022/03/01 16:30:59;;;;;;;;;;;;;;;;;;5052064;28;81798;-59
2022/03/01 16:33:25;;;;;;;;;;;;;;;;;;5051715;27;82331;-58
2022/03/01 16:35:50;;;;;;;;;;;;;;;;;;5051028;28;82644;-58